sensor_id;sensor_type;location;lat;lon;timestamp;P1;durP1;ratioP1;P2;durP2;ratioP2
54368;SDS011;40266;52.434;17.056;2023-04-22T00:06:38;13.30;;;6.20;;
54368;SDS011;40266;52.434;17.056;2023-04-22T00:25:54;14.90;;;5.60;;
54368;SDS011;40266;52.434;17.056;2023-04-22T00:33:45;14.30;;;6.20;;
54368;SDS011;40266;52.434;17.056;2023-04-22T00:37:42;11.90;;;6.10;;
54368;SDS011;40266;52.434;17.056;2023-04-22T00:45:19;12.20;;;6.40;;
54368;SDS011;40266;52.434;17.056;2023-04-22T00:57:01;12.50;;;5.90;;
54368;SDS011;40266;52.434;17.056;2023-04-22T01:04:40;14.40;;;5.80;;
54368;SDS011;40266;52.434;17.056;2023-04-22T01:07:23;11.60;;;5.90;;
54368;SDS011;40266;52.434;17.056;2023-04-22T01:12:49;12.90;;;6.10;;
54368;SDS011;40266;52.434;17.056;2023-04-22T01:15:32;13.10;;;5.70;;
54368;SDS011;40266;52.434;17.056;2023-04-22T01:18:15;13.20;;;6.50;;
54368;SDS011;40266;52.434;17.056;2023-04-22T01:20:59;11.40;;;6.30;;
54368;SDS011;40266;52.434;17.056;2023-04-22T01:23:44;14.80;;;6.80;;
54368;SDS011;40266;52.434;17.056;2023-04-22T01:26:27;14.50;;;6.40;;
54368;SDS011;40266;52.434;17.056;2023-04-22T01:29:10;14.10;;;6.50;;
54368;SDS011;40266;52.434;17.056;2023-04-22T01:31:53;14.20;;;6.30;;
54368;SDS011;40266;52.434;17.056;2023-04-22T01:34:37;12.40;;;6.60;;
54368;SDS011;40266;52.434;17.056;2023-04-22T01:37:20;16.50;;;6.60;;
54368;SDS011;40266;52.434;17.056;2023-04-22T01:40:04;17.50;;;6.60;;
54368;SDS011;40266;52.434;17.056;2023-04-22T01:42:47;15.70;;;5.90;;
54368;SDS011;40266;52.434;17.056;2023-04-22T01:45:31;12.80;;;6.00;;
54368;SDS011;40266;52.434;17.056;2023-04-22T01:48:13;15.30;;;6.60;;
54368;SDS011;40266;52.434;17.056;2023-04-22T01:50:57;14.40;;;6.50;;
54368;SDS011;40266;52.434;17.056;2023-04-22T01:53:40;13.40;;;6.10;;
54368;SDS011;40266;52.434;17.056;2023-04-22T01:59:06;12.90;;;6.20;;
54368;SDS011;40266;52.434;17.056;2023-04-22T02:01:50;11.40;;;6.00;;
54368;SDS011;40266;52.434;17.056;2023-04-22T02:04:33;10.60;;;5.70;;
54368;SDS011;40266;52.434;17.056;2023-04-22T02:07:17;13.00;;;6.40;;
54368;SDS011;40266;52.434;17.056;2023-04-22T02:12:43;10.70;;;5.70;;
54368;SDS011;40266;52.434;17.056;2023-04-22T02:15:28;15.40;;;7.00;;
54368;SDS011;40266;52.434;17.056;2023-04-22T02:18:12;13.90;;;6.40;;
54368;SDS011;40266;52.434;17.056;2023-04-22T02:20:56;16.60;;;6.60;;
54368;SDS011;40266;52.434;17.056;2023-04-22T02:23:39;12.50;;;5.70;;
54368;SDS011;40266;52.434;17.056;2023-04-22T02:26:22;13.60;;;6.90;;
54368;SDS011;40266;52.434;17.056;2023-04-22T02:29:07;12.80;;;6.40;;
54368;SDS011;40266;52.434;17.056;2023-04-22T02:31:50;15.20;;;6.80;;
54368;SDS011;40266;52.434;17.056;2023-04-22T02:34:33;15.00;;;7.40;;
54368;SDS011;40266;52.434;17.056;2023-04-22T02:40:00;13.00;;;6.10;;
54368;SDS011;40266;52.434;17.056;2023-04-22T02:42:44;17.10;;;7.00;;
54368;SDS011;40266;52.434;17.056;2023-04-22T02:45:27;13.20;;;6.40;;
54368;SDS011;40266;52.434;17.056;2023-04-22T02:48:10;15.80;;;7.10;;
54368;SDS011;40266;52.434;17.056;2023-04-22T02:50:53;12.90;;;6.80;;
54368;SDS011;40266;52.434;17.056;2023-04-22T02:53:36;13.70;;;6.70;;
54368;SDS011;40266;52.434;17.056;2023-04-22T02:56:19;17.30;;;7.30;;
54368;SDS011;40266;52.434;17.056;2023-04-22T02:59:03;16.30;;;7.20;;
54368;SDS011;40266;52.434;17.056;2023-04-22T03:01:46;16.40;;;7.40;;
54368;SDS011;40266;52.434;17.056;2023-04-22T03:04:37;14.40;;;6.60;;
54368;SDS011;40266;52.434;17.056;2023-04-22T03:07:20;16.60;;;7.90;;
54368;SDS011;40266;52.434;17.056;2023-04-22T03:10:03;14.30;;;8.00;;
54368;SDS011;40266;52.434;17.056;2023-04-22T03:12:46;14.50;;;7.60;;
54368;SDS011;40266;52.434;17.056;2023-04-22T03:15:30;16.20;;;7.40;;
54368;SDS011;40266;52.434;17.056;2023-04-22T03:18:14;18.50;;;7.20;;
54368;SDS011;40266;52.434;17.056;2023-04-22T03:20:57;17.70;;;7.90;;
54368;SDS011;40266;52.434;17.056;2023-04-22T03:26:23;20.30;;;8.60;;
54368;SDS011;40266;52.434;17.056;2023-04-22T03:31:49;22.90;;;9.30;;
54368;SDS011;40266;52.434;17.056;2023-04-22T03:34:32;19.70;;;9.70;;
54368;SDS011;40266;52.434;17.056;2023-04-22T03:37:18;24.70;;;12.80;;
54368;SDS011;40266;52.434;17.056;2023-04-22T03:40:01;23.10;;;10.30;;
54368;SDS011;40266;52.434;17.056;2023-04-22T03:42:47;20.60;;;10.20;;
54368;SDS011;40266;52.434;17.056;2023-04-22T03:45:32;22.80;;;10.60;;
54368;SDS011;40266;52.434;17.056;2023-04-22T03:48:30;23.20;;;10.10;;
54368;SDS011;40266;52.434;17.056;2023-04-22T03:51:20;25.00;;;12.50;;
54368;SDS011;40266;52.434;17.056;2023-04-22T03:54:04;27.20;;;10.40;;
54368;SDS011;40266;52.434;17.056;2023-04-22T03:56:48;25.90;;;10.90;;
54368;SDS011;40266;52.434;17.056;2023-04-22T04:02:14;25.40;;;9.80;;
54368;SDS011;40266;52.434;17.056;2023-04-22T04:04:57;20.60;;;9.90;;
54368;SDS011;40266;52.434;17.056;2023-04-22T04:07:41;26.40;;;10.30;;
54368;SDS011;40266;52.434;17.056;2023-04-22T04:10:24;21.80;;;10.60;;
54368;SDS011;40266;52.434;17.056;2023-04-22T04:13:08;25.50;;;10.20;;
54368;SDS011;40266;52.434;17.056;2023-04-22T04:15:59;27.30;;;9.20;;
54368;SDS011;40266;52.434;17.056;2023-04-22T04:18:43;27.00;;;10.20;;
54368;SDS011;40266;52.434;17.056;2023-04-22T04:21:27;24.70;;;9.90;;
54368;SDS011;40266;52.434;17.056;2023-04-22T04:24:11;23.90;;;10.30;;
54368;SDS011;40266;52.434;17.056;2023-04-22T04:26:58;22.50;;;9.60;;
54368;SDS011;40266;52.434;17.056;2023-04-22T04:29:45;24.70;;;10.00;;
54368;SDS011;40266;52.434;17.056;2023-04-22T04:32:33;25.50;;;11.10;;
54368;SDS011;40266;52.434;17.056;2023-04-22T04:35:20;28.60;;;11.20;;
54368;SDS011;40266;52.434;17.056;2023-04-22T04:38:06;30.20;;;10.30;;
54368;SDS011;40266;52.434;17.056;2023-04-22T04:40:50;26.40;;;10.40;;
54368;SDS011;40266;52.434;17.056;2023-04-22T04:43:37;25.50;;;10.00;;
54368;SDS011;40266;52.434;17.056;2023-04-22T04:46:42;25.10;;;9.20;;
54368;SDS011;40266;52.434;17.056;2023-04-22T04:49:25;24.10;;;10.10;;
54368;SDS011;40266;52.434;17.056;2023-04-22T04:52:13;24.20;;;10.00;;
54368;SDS011;40266;52.434;17.056;2023-04-22T04:54:56;22.20;;;9.50;;
54368;SDS011;40266;52.434;17.056;2023-04-22T04:57:40;20.20;;;9.00;;
54368;SDS011;40266;52.434;17.056;2023-04-22T05:00:25;23.70;;;10.00;;
54368;SDS011;40266;52.434;17.056;2023-04-22T05:03:09;18.40;;;9.70;;
54368;SDS011;40266;52.434;17.056;2023-04-22T05:05:53;21.50;;;10.10;;
54368;SDS011;40266;52.434;17.056;2023-04-22T05:08:36;25.70;;;10.10;;
54368;SDS011;40266;52.434;17.056;2023-04-22T05:11:22;20.70;;;9.50;;
54368;SDS011;40266;52.434;17.056;2023-04-22T05:14:05;18.70;;;8.90;;
54368;SDS011;40266;52.434;17.056;2023-04-22T05:16:51;19.60;;;8.30;;
54368;SDS011;40266;52.434;17.056;2023-04-22T05:19:35;21.30;;;7.80;;
54368;SDS011;40266;52.434;17.056;2023-04-22T05:22:19;18.60;;;8.10;;
54368;SDS011;40266;52.434;17.056;2023-04-22T05:25:02;20.10;;;9.30;;
54368;SDS011;40266;52.434;17.056;2023-04-22T05:27:46;22.00;;;9.40;;
54368;SDS011;40266;52.434;17.056;2023-04-22T05:30:29;20.30;;;8.60;;
54368;SDS011;40266;52.434;17.056;2023-04-22T05:33:14;18.20;;;8.70;;
54368;SDS011;40266;52.434;17.056;2023-04-22T05:35:57;16.80;;;7.70;;
54368;SDS011;40266;52.434;17.056;2023-04-22T05:38:40;17.60;;;8.10;;
54368;SDS011;40266;52.434;17.056;2023-04-22T05:41:23;16.70;;;8.90;;
54368;SDS011;40266;52.434;17.056;2023-04-22T05:44:06;21.40;;;8.50;;
54368;SDS011;40266;52.434;17.056;2023-04-22T05:46:49;15.70;;;8.00;;
54368;SDS011;40266;52.434;17.056;2023-04-22T05:49:33;13.80;;;8.00;;
54368;SDS011;40266;52.434;17.056;2023-04-22T05:52:16;17.40;;;8.50;;
54368;SDS011;40266;52.434;17.056;2023-04-22T05:55:23;17.30;;;8.30;;
54368;SDS011;40266;52.434;17.056;2023-04-22T05:58:06;21.50;;;8.60;;
54368;SDS011;40266;52.434;17.056;2023-04-22T06:00:57;19.40;;;8.90;;
54368;SDS011;40266;52.434;17.056;2023-04-22T06:03:55;16.80;;;8.60;;
54368;SDS011;40266;52.434;17.056;2023-04-22T06:06:39;25.40;;;10.40;;
54368;SDS011;40266;52.434;17.056;2023-04-22T06:09:23;20.50;;;8.80;;
54368;SDS011;40266;52.434;17.056;2023-04-22T06:12:06;15.30;;;8.70;;
54368;SDS011;40266;52.434;17.056;2023-04-22T06:14:51;18.60;;;9.00;;
54368;SDS011;40266;52.434;17.056;2023-04-22T06:17:34;15.30;;;7.80;;
54368;SDS011;40266;52.434;17.056;2023-04-22T06:20:17;19.60;;;8.60;;
54368;SDS011;40266;52.434;17.056;2023-04-22T06:23:00;17.20;;;8.90;;
54368;SDS011;40266;52.434;17.056;2023-04-22T06:25:43;16.80;;;8.80;;
54368;SDS011;40266;52.434;17.056;2023-04-22T06:28:27;18.50;;;9.30;;
54368;SDS011;40266;52.434;17.056;2023-04-22T06:31:11;13.70;;;7.50;;
54368;SDS011;40266;52.434;17.056;2023-04-22T06:33:55;16.30;;;8.30;;
54368;SDS011;40266;52.434;17.056;2023-04-22T06:36:38;21.90;;;8.80;;
54368;SDS011;40266;52.434;17.056;2023-04-22T06:39:21;16.40;;;8.50;;
54368;SDS011;40266;52.434;17.056;2023-04-22T06:42:39;17.70;;;8.50;;
54368;SDS011;40266;52.434;17.056;2023-04-22T06:45:42;15.00;;;8.00;;
54368;SDS011;40266;52.434;17.056;2023-04-22T06:48:35;13.90;;;8.10;;
54368;SDS011;40266;52.434;17.056;2023-04-22T06:51:31;21.20;;;9.20;;
54368;SDS011;40266;52.434;17.056;2023-04-22T06:54:15;17.30;;;9.20;;
54368;SDS011;40266;52.434;17.056;2023-04-22T06:56:58;18.10;;;9.20;;
54368;SDS011;40266;52.434;17.056;2023-04-22T06:59:42;16.90;;;8.70;;
54368;SDS011;40266;52.434;17.056;2023-04-22T07:02:28;17.90;;;9.60;;
54368;SDS011;40266;52.434;17.056;2023-04-22T07:05:11;18.90;;;9.20;;
54368;SDS011;40266;52.434;17.056;2023-04-22T07:07:55;21.10;;;9.40;;
54368;SDS011;40266;52.434;17.056;2023-04-22T07:10:38;18.70;;;8.70;;
54368;SDS011;40266;52.434;17.056;2023-04-22T07:13:56;21.50;;;9.60;;
54368;SDS011;40266;52.434;17.056;2023-04-22T07:16:40;18.20;;;9.50;;
54368;SDS011;40266;52.434;17.056;2023-04-22T07:19:23;17.50;;;8.90;;
54368;SDS011;40266;52.434;17.056;2023-04-22T07:22:06;17.90;;;8.80;;
54368;SDS011;40266;52.434;17.056;2023-04-22T07:24:49;21.90;;;9.60;;
54368;SDS011;40266;52.434;17.056;2023-04-22T07:27:33;18.60;;;9.60;;
54368;SDS011;40266;52.434;17.056;2023-04-22T07:30:18;18.10;;;8.50;;
54368;SDS011;40266;52.434;17.056;2023-04-22T07:33:01;17.50;;;9.10;;
54368;SDS011;40266;52.434;17.056;2023-04-22T07:35:44;17.00;;;9.20;;
54368;SDS011;40266;52.434;17.056;2023-04-22T07:38:29;16.80;;;9.30;;
54368;SDS011;40266;52.434;17.056;2023-04-22T07:41:12;16.20;;;9.70;;
54368;SDS011;40266;52.434;17.056;2023-04-22T07:43:55;18.10;;;9.90;;
54368;SDS011;40266;52.434;17.056;2023-04-22T07:46:38;22.90;;;10.10;;
54368;SDS011;40266;52.434;17.056;2023-04-22T07:49:21;21.10;;;9.30;;
54368;SDS011;40266;52.434;17.056;2023-04-22T07:52:03;20.30;;;10.40;;
54368;SDS011;40266;52.434;17.056;2023-04-22T07:54:47;18.20;;;9.90;;
54368;SDS011;40266;52.434;17.056;2023-04-22T07:57:29;16.70;;;9.20;;
54368;SDS011;40266;52.434;17.056;2023-04-22T08:00:14;17.90;;;9.60;;
54368;SDS011;40266;52.434;17.056;2023-04-22T08:02:57;22.60;;;11.40;;
54368;SDS011;40266;52.434;17.056;2023-04-22T08:05:40;17.60;;;9.50;;
54368;SDS011;40266;52.434;17.056;2023-04-22T08:08:24;20.90;;;10.00;;
54368;SDS011;40266;52.434;17.056;2023-04-22T08:11:07;16.00;;;9.00;;
54368;SDS011;40266;52.434;17.056;2023-04-22T08:13:50;20.90;;;9.20;;
54368;SDS011;40266;52.434;17.056;2023-04-22T08:16:33;18.60;;;9.70;;
54368;SDS011;40266;52.434;17.056;2023-04-22T08:19:17;19.70;;;10.40;;
54368;SDS011;40266;52.434;17.056;2023-04-22T08:22:00;18.80;;;9.50;;
54368;SDS011;40266;52.434;17.056;2023-04-22T08:24:43;16.70;;;8.70;;
54368;SDS011;40266;52.434;17.056;2023-04-22T08:27:26;20.70;;;10.10;;
54368;SDS011;40266;52.434;17.056;2023-04-22T08:30:10;15.30;;;8.40;;
54368;SDS011;40266;52.434;17.056;2023-04-22T08:32:53;19.00;;;9.30;;
54368;SDS011;40266;52.434;17.056;2023-04-22T08:35:36;16.90;;;8.70;;
54368;SDS011;40266;52.434;17.056;2023-04-22T08:38:20;17.70;;;9.10;;
54368;SDS011;40266;52.434;17.056;2023-04-22T08:41:03;23.30;;;9.50;;
54368;SDS011;40266;52.434;17.056;2023-04-22T08:43:47;19.80;;;8.80;;
54368;SDS011;40266;52.434;17.056;2023-04-22T08:46:30;16.50;;;8.90;;
54368;SDS011;40266;52.434;17.056;2023-04-22T08:49:14;17.40;;;9.00;;
54368;SDS011;40266;52.434;17.056;2023-04-22T08:51:57;15.20;;;8.00;;
54368;SDS011;40266;52.434;17.056;2023-04-22T08:54:41;21.80;;;8.50;;
54368;SDS011;40266;52.434;17.056;2023-04-22T08:57:24;18.60;;;8.00;;
54368;SDS011;40266;52.434;17.056;2023-04-22T09:00:08;17.30;;;8.90;;
54368;SDS011;40266;52.434;17.056;2023-04-22T09:02:52;15.70;;;7.90;;
54368;SDS011;40266;52.434;17.056;2023-04-22T09:05:35;18.30;;;8.40;;
54368;SDS011;40266;52.434;17.056;2023-04-22T09:08:21;16.30;;;8.30;;
54368;SDS011;40266;52.434;17.056;2023-04-22T09:11:04;14.80;;;6.70;;
54368;SDS011;40266;52.434;17.056;2023-04-22T09:13:47;14.90;;;7.20;;
54368;SDS011;40266;52.434;17.056;2023-04-22T09:16:30;14.90;;;6.60;;
54368;SDS011;40266;52.434;17.056;2023-04-22T09:19:13;25.10;;;7.20;;
54368;SDS011;40266;52.434;17.056;2023-04-22T09:21:57;11.10;;;6.30;;
54368;SDS011;40266;52.434;17.056;2023-04-22T09:24:42;12.60;;;6.10;;
54368;SDS011;40266;52.434;17.056;2023-04-22T09:27:26;11.10;;;6.70;;
54368;SDS011;40266;52.434;17.056;2023-04-22T09:30:11;9.40;;;6.40;;
54368;SDS011;40266;52.434;17.056;2023-04-22T09:32:56;16.10;;;6.00;;
54368;SDS011;40266;52.434;17.056;2023-04-22T09:35:44;12.50;;;5.50;;
54368;SDS011;40266;52.434;17.056;2023-04-22T09:38:29;17.80;;;6.00;;
54368;SDS011;40266;52.434;17.056;2023-04-22T09:41:13;12.30;;;4.90;;
54368;SDS011;40266;52.434;17.056;2023-04-22T09:43:57;18.80;;;5.90;;
54368;SDS011;40266;52.434;17.056;2023-04-22T09:46:41;7.60;;;5.20;;
54368;SDS011;40266;52.434;17.056;2023-04-22T09:49:26;9.00;;;4.90;;
54368;SDS011;40266;52.434;17.056;2023-04-22T09:52:09;9.00;;;5.30;;
54368;SDS011;40266;52.434;17.056;2023-04-22T09:54:52;11.40;;;5.80;;
54368;SDS011;40266;52.434;17.056;2023-04-22T09:57:36;10.80;;;5.50;;
54368;SDS011;40266;52.434;17.056;2023-04-22T10:00:25;14.30;;;5.70;;
54368;SDS011;40266;52.434;17.056;2023-04-22T10:03:12;17.90;;;5.60;;
54368;SDS011;40266;52.434;17.056;2023-04-22T10:05:59;11.50;;;6.60;;
54368;SDS011;40266;52.434;17.056;2023-04-22T10:08:42;14.60;;;6.40;;
54368;SDS011;40266;52.434;17.056;2023-04-22T10:11:26;19.40;;;6.70;;
54368;SDS011;40266;52.434;17.056;2023-04-22T10:14:09;13.20;;;6.70;;
54368;SDS011;40266;52.434;17.056;2023-04-22T10:16:56;12.50;;;6.50;;
54368;SDS011;40266;52.434;17.056;2023-04-22T10:19:41;8.10;;;4.70;;
54368;SDS011;40266;52.434;17.056;2023-04-22T10:22:28;17.00;;;5.60;;
54368;SDS011;40266;52.434;17.056;2023-04-22T10:25:35;10.90;;;5.50;;
54368;SDS011;40266;52.434;17.056;2023-04-22T10:28:16;14.90;;;5.00;;
54368;SDS011;40266;52.434;17.056;2023-04-22T10:31:04;11.40;;;5.50;;
54368;SDS011;40266;52.434;17.056;2023-04-22T10:33:48;13.20;;;5.30;;
54368;SDS011;40266;52.434;17.056;2023-04-22T10:36:32;11.70;;;6.10;;
54368;SDS011;40266;52.434;17.056;2023-04-22T10:39:15;11.70;;;7.00;;
54368;SDS011;40266;52.434;17.056;2023-04-22T10:44:45;11.40;;;5.50;;
54368;SDS011;40266;52.434;17.056;2023-04-22T10:47:34;7.70;;;4.80;;
54368;SDS011;40266;52.434;17.056;2023-04-22T10:56:19;11.30;;;5.70;;
54368;SDS011;40266;52.434;17.056;2023-04-22T10:59:14;11.40;;;5.80;;
54368;SDS011;40266;52.434;17.056;2023-04-22T11:02:02;8.90;;;5.50;;
54368;SDS011;40266;52.434;17.056;2023-04-22T11:04:49;11.70;;;6.00;;
54368;SDS011;40266;52.434;17.056;2023-04-22T11:07:35;10.70;;;5.60;;
54368;SDS011;40266;52.434;17.056;2023-04-22T11:13:35;10.30;;;5.90;;
54368;SDS011;40266;52.434;17.056;2023-04-22T11:16:20;15.80;;;6.20;;
54368;SDS011;40266;52.434;17.056;2023-04-22T11:19:04;16.60;;;5.70;;
54368;SDS011;40266;52.434;17.056;2023-04-22T11:21:47;13.20;;;5.50;;
54368;SDS011;40266;52.434;17.056;2023-04-22T11:24:32;9.60;;;5.50;;
54368;SDS011;40266;52.434;17.056;2023-04-22T11:27:15;15.20;;;6.00;;
54368;SDS011;40266;52.434;17.056;2023-04-22T11:32:54;11.20;;;6.00;;
54368;SDS011;40266;52.434;17.056;2023-04-22T11:35:40;12.40;;;5.60;;
54368;SDS011;40266;52.434;17.056;2023-04-22T11:38:24;10.70;;;6.30;;
54368;SDS011;40266;52.434;17.056;2023-04-22T11:41:07;12.30;;;6.70;;
54368;SDS011;40266;52.434;17.056;2023-04-22T11:43:50;10.90;;;5.90;;
54368;SDS011;40266;52.434;17.056;2023-04-22T11:46:35;15.30;;;5.90;;
54368;SDS011;40266;52.434;17.056;2023-04-22T11:49:21;11.00;;;5.50;;
54368;SDS011;40266;52.434;17.056;2023-04-22T11:52:04;12.00;;;5.90;;
54368;SDS011;40266;52.434;17.056;2023-04-22T11:54:46;12.30;;;6.50;;
54368;SDS011;40266;52.434;17.056;2023-04-22T11:57:34;15.00;;;6.80;;
54368;SDS011;40266;52.434;17.056;2023-04-22T12:00:18;12.50;;;6.20;;
54368;SDS011;40266;52.434;17.056;2023-04-22T12:03:02;10.00;;;6.20;;
54368;SDS011;40266;52.434;17.056;2023-04-22T12:08:43;12.80;;;6.10;;
54368;SDS011;40266;52.434;17.056;2023-04-22T12:11:28;10.00;;;6.20;;
54368;SDS011;40266;52.434;17.056;2023-04-22T12:14:11;11.10;;;5.80;;
54368;SDS011;40266;52.434;17.056;2023-04-22T12:16:54;8.20;;;5.40;;
54368;SDS011;40266;52.434;17.056;2023-04-22T12:19:37;13.80;;;6.80;;
54368;SDS011;40266;52.434;17.056;2023-04-22T12:22:24;16.40;;;6.70;;
54368;SDS011;40266;52.434;17.056;2023-04-22T12:25:08;11.10;;;6.90;;
54368;SDS011;40266;52.434;17.056;2023-04-22T12:27:52;11.20;;;6.50;;
54368;SDS011;40266;52.434;17.056;2023-04-22T12:30:35;9.80;;;5.90;;
54368;SDS011;40266;52.434;17.056;2023-04-22T12:33:17;14.40;;;6.70;;
54368;SDS011;40266;52.434;17.056;2023-04-22T12:36:01;13.30;;;7.30;;
54368;SDS011;40266;52.434;17.056;2023-04-22T12:38:46;10.40;;;6.20;;
54368;SDS011;40266;52.434;17.056;2023-04-22T12:41:29;11.70;;;5.60;;
54368;SDS011;40266;52.434;17.056;2023-04-22T12:44:12;12.70;;;6.40;;
54368;SDS011;40266;52.434;17.056;2023-04-22T12:46:55;12.00;;;6.30;;
54368;SDS011;40266;52.434;17.056;2023-04-22T12:49:38;12.20;;;6.30;;
54368;SDS011;40266;52.434;17.056;2023-04-22T12:52:22;11.90;;;6.20;;
54368;SDS011;40266;52.434;17.056;2023-04-22T12:55:05;17.10;;;6.30;;
54368;SDS011;40266;52.434;17.056;2023-04-22T12:57:49;13.10;;;6.80;;
54368;SDS011;40266;52.434;17.056;2023-04-22T13:00:32;12.30;;;6.20;;
54368;SDS011;40266;52.434;17.056;2023-04-22T13:03:16;13.20;;;6.50;;
54368;SDS011;40266;52.434;17.056;2023-04-22T13:05:59;17.00;;;7.40;;
54368;SDS011;40266;52.434;17.056;2023-04-22T13:08:42;11.70;;;6.20;;
54368;SDS011;40266;52.434;17.056;2023-04-22T13:11:25;10.20;;;6.00;;
54368;SDS011;40266;52.434;17.056;2023-04-22T13:14:08;19.60;;;7.50;;
54368;SDS011;40266;52.434;17.056;2023-04-22T13:16:51;10.90;;;6.20;;
54368;SDS011;40266;52.434;17.056;2023-04-22T13:19:34;10.20;;;6.00;;
54368;SDS011;40266;52.434;17.056;2023-04-22T13:22:18;10.90;;;5.80;;
54368;SDS011;40266;52.434;17.056;2023-04-22T13:25:01;13.90;;;7.10;;
54368;SDS011;40266;52.434;17.056;2023-04-22T13:27:44;13.90;;;6.50;;
54368;SDS011;40266;52.434;17.056;2023-04-22T13:30:27;11.70;;;6.70;;
54368;SDS011;40266;52.434;17.056;2023-04-22T13:33:10;9.90;;;5.80;;
54368;SDS011;40266;52.434;17.056;2023-04-22T13:35:53;15.30;;;6.80;;
54368;SDS011;40266;52.434;17.056;2023-04-22T13:38:36;12.60;;;7.10;;
54368;SDS011;40266;52.434;17.056;2023-04-22T13:41:20;14.60;;;7.60;;
54368;SDS011;40266;52.434;17.056;2023-04-22T13:44:04;10.70;;;6.70;;
54368;SDS011;40266;52.434;17.056;2023-04-22T13:46:47;12.30;;;6.70;;
54368;SDS011;40266;52.434;17.056;2023-04-22T13:49:30;11.00;;;6.70;;
54368;SDS011;40266;52.434;17.056;2023-04-22T13:52:13;15.50;;;6.60;;
54368;SDS011;40266;52.434;17.056;2023-04-22T13:54:57;15.50;;;6.70;;
54368;SDS011;40266;52.434;17.056;2023-04-22T13:57:41;29.60;;;7.90;;
54368;SDS011;40266;52.434;17.056;2023-04-22T14:00:23;15.40;;;7.00;;
54368;SDS011;40266;52.434;17.056;2023-04-22T14:03:07;9.80;;;6.10;;
54368;SDS011;40266;52.434;17.056;2023-04-22T14:05:50;10.10;;;6.80;;
54368;SDS011;40266;52.434;17.056;2023-04-22T14:08:34;11.40;;;6.20;;
54368;SDS011;40266;52.434;17.056;2023-04-22T14:11:18;12.00;;;6.70;;
54368;SDS011;40266;52.434;17.056;2023-04-22T14:14:01;17.40;;;6.30;;
54368;SDS011;40266;52.434;17.056;2023-04-22T14:16:44;26.50;;;7.00;;
54368;SDS011;40266;52.434;17.056;2023-04-22T14:19:29;13.40;;;6.30;;
54368;SDS011;40266;52.434;17.056;2023-04-22T14:22:13;27.00;;;7.50;;
54368;SDS011;40266;52.434;17.056;2023-04-22T14:24:56;12.40;;;6.10;;
54368;SDS011;40266;52.434;17.056;2023-04-22T14:27:39;10.50;;;5.50;;
54368;SDS011;40266;52.434;17.056;2023-04-22T14:30:22;11.10;;;6.50;;
54368;SDS011;40266;52.434;17.056;2023-04-22T14:33:05;10.70;;;6.30;;
54368;SDS011;40266;52.434;17.056;2023-04-22T14:35:50;14.60;;;6.00;;
54368;SDS011;40266;52.434;17.056;2023-04-22T14:38:34;17.60;;;8.30;;
54368;SDS011;40266;52.434;17.056;2023-04-22T14:41:21;9.20;;;5.70;;
54368;SDS011;40266;52.434;17.056;2023-04-22T14:44:10;12.00;;;6.60;;
54368;SDS011;40266;52.434;17.056;2023-04-22T14:46:53;14.00;;;7.40;;
54368;SDS011;40266;52.434;17.056;2023-04-22T14:49:36;13.90;;;6.10;;
54368;SDS011;40266;52.434;17.056;2023-04-22T14:52:20;13.80;;;5.50;;
54368;SDS011;40266;52.434;17.056;2023-04-22T14:55:03;13.00;;;5.50;;
54368;SDS011;40266;52.434;17.056;2023-04-22T14:58:01;43.40;;;8.10;;
54368;SDS011;40266;52.434;17.056;2023-04-22T15:00:44;13.00;;;6.00;;
54368;SDS011;40266;52.434;17.056;2023-04-22T15:03:28;12.90;;;6.20;;
54368;SDS011;40266;52.434;17.056;2023-04-22T15:06:12;14.60;;;5.70;;
54368;SDS011;40266;52.434;17.056;2023-04-22T15:08:55;10.50;;;6.00;;
54368;SDS011;40266;52.434;17.056;2023-04-22T15:11:38;15.30;;;5.60;;
54368;SDS011;40266;52.434;17.056;2023-04-22T15:14:21;12.80;;;6.40;;
54368;SDS011;40266;52.434;17.056;2023-04-22T15:17:04;13.90;;;7.00;;
54368;SDS011;40266;52.434;17.056;2023-04-22T15:19:47;12.10;;;7.10;;
54368;SDS011;40266;52.434;17.056;2023-04-22T15:22:31;12.00;;;6.00;;
54368;SDS011;40266;52.434;17.056;2023-04-22T15:25:15;26.00;;;8.40;;
54368;SDS011;40266;52.434;17.056;2023-04-22T15:27:59;13.50;;;6.90;;
54368;SDS011;40266;52.434;17.056;2023-04-22T15:30:42;18.10;;;6.30;;
54368;SDS011;40266;52.434;17.056;2023-04-22T15:33:25;16.90;;;6.50;;
54368;SDS011;40266;52.434;17.056;2023-04-22T15:36:08;24.80;;;7.50;;
54368;SDS011;40266;52.434;17.056;2023-04-22T15:38:53;14.30;;;6.20;;
54368;SDS011;40266;52.434;17.056;2023-04-22T15:41:40;15.60;;;6.10;;
54368;SDS011;40266;52.434;17.056;2023-04-22T15:44:25;21.90;;;5.80;;
54368;SDS011;40266;52.434;17.056;2023-04-22T15:47:09;28.20;;;6.90;;
54368;SDS011;40266;52.434;17.056;2023-04-22T15:49:53;19.20;;;6.60;;
54368;SDS011;40266;52.434;17.056;2023-04-22T15:52:38;14.30;;;6.60;;
54368;SDS011;40266;52.434;17.056;2023-04-22T15:55:21;10.30;;;5.90;;
54368;SDS011;40266;52.434;17.056;2023-04-22T15:58:04;11.20;;;6.70;;
54368;SDS011;40266;52.434;17.056;2023-04-22T16:00:47;12.80;;;5.90;;
54368;SDS011;40266;52.434;17.056;2023-04-22T16:03:31;12.80;;;5.60;;
54368;SDS011;40266;52.434;17.056;2023-04-22T16:06:14;20.30;;;7.40;;
54368;SDS011;40266;52.434;17.056;2023-04-22T16:08:58;13.00;;;6.50;;
54368;SDS011;40266;52.434;17.056;2023-04-22T16:11:41;15.00;;;5.60;;
54368;SDS011;40266;52.434;17.056;2023-04-22T16:14:24;9.10;;;4.90;;
54368;SDS011;40266;52.434;17.056;2023-04-22T16:17:08;10.20;;;6.10;;
54368;SDS011;40266;52.434;17.056;2023-04-22T16:19:51;13.30;;;6.30;;
54368;SDS011;40266;52.434;17.056;2023-04-22T16:22:35;9.30;;;5.30;;
54368;SDS011;40266;52.434;17.056;2023-04-22T16:25:18;14.80;;;6.30;;
54368;SDS011;40266;52.434;17.056;2023-04-22T16:28:02;17.20;;;6.40;;
54368;SDS011;40266;52.434;17.056;2023-04-22T16:30:45;11.70;;;5.60;;
54368;SDS011;40266;52.434;17.056;2023-04-22T16:33:29;11.20;;;5.90;;
54368;SDS011;40266;52.434;17.056;2023-04-22T16:36:14;11.70;;;5.80;;
54368;SDS011;40266;52.434;17.056;2023-04-22T16:38:57;12.10;;;5.80;;
54368;SDS011;40266;52.434;17.056;2023-04-22T16:41:40;10.40;;;5.40;;
54368;SDS011;40266;52.434;17.056;2023-04-22T16:44:25;8.60;;;5.50;;
54368;SDS011;40266;52.434;17.056;2023-04-22T16:47:08;9.40;;;5.70;;
54368;SDS011;40266;52.434;17.056;2023-04-22T16:49:51;12.10;;;6.10;;
54368;SDS011;40266;52.434;17.056;2023-04-22T16:52:34;11.40;;;6.00;;
54368;SDS011;40266;52.434;17.056;2023-04-22T16:55:17;11.00;;;6.00;;
54368;SDS011;40266;52.434;17.056;2023-04-22T16:58:00;8.70;;;5.70;;
54368;SDS011;40266;52.434;17.056;2023-04-22T17:00:45;12.10;;;6.40;;
54368;SDS011;40266;52.434;17.056;2023-04-22T17:03:29;15.90;;;5.60;;
54368;SDS011;40266;52.434;17.056;2023-04-22T17:06:12;13.70;;;5.60;;
54368;SDS011;40266;52.434;17.056;2023-04-22T17:08:55;29.00;;;6.60;;
54368;SDS011;40266;52.434;17.056;2023-04-22T17:11:38;21.80;;;6.20;;
54368;SDS011;40266;52.434;17.056;2023-04-22T17:14:21;24.20;;;7.30;;
54368;SDS011;40266;52.434;17.056;2023-04-22T17:17:04;29.00;;;7.30;;
54368;SDS011;40266;52.434;17.056;2023-04-22T17:19:47;17.30;;;6.60;;
54368;SDS011;40266;52.434;17.056;2023-04-22T17:22:30;24.90;;;7.00;;
54368;SDS011;40266;52.434;17.056;2023-04-22T17:25:14;16.30;;;6.20;;